sensor_id;sensor_type;location;lat;lon;timestamp;pressure;altitude;pressure_sealevel;temperature;humidity
45327;BME280;31062;49.678;24.560;2024-01-06T00:02:35;97559.41;;;1.83;75.13
45327;BME280;31062;49.678;24.560;2024-01-06T00:05:22;97564.88;;;1.83;75.32
45327;BME280;31062;49.678;24.560;2024-01-06T00:08:08;97553.00;;;1.81;75.59
45327;BME280;31062;49.678;24.560;2024-01-06T00:11:10;97551.34;;;1.78;75.36
45327;BME280;31062;49.678;24.560;2024-01-06T00:13:55;97549.88;;;1.77;75.74
45327;BME280;31062;49.678;24.560;2024-01-06T00:16:42;97541.16;;;1.78;75.86
45327;BME280;31062;49.678;24.560;2024-01-06T00:19:28;97558.28;;;1.79;76.06
45327;BME280;31062;49.678;24.560;2024-01-06T00:22:34;97548.06;;;1.79;75.71
45327;BME280;31062;49.678;24.560;2024-01-06T00:25:21;97551.00;;;1.81;75.72
45327;BME280;31062;49.678;24.560;2024-01-06T00:28:07;97563.00;;;1.78;76.16
45327;BME280;31062;49.678;24.560;2024-01-06T00:30:52;97568.88;;;1.82;76.27
45327;BME280;31062;49.678;24.560;2024-01-06T00:33:39;97579.81;;;1.82;75.92
45327;BME280;31062;49.678;24.560;2024-01-06T00:36:25;97580.19;;;1.86;76.03
45327;BME280;31062;49.678;24.560;2024-01-06T00:39:12;97583.88;;;1.89;76.20
45327;BME280;31062;49.678;24.560;2024-01-06T00:41:58;97577.88;;;1.90;75.78
45327;BME280;31062;49.678;24.560;2024-01-06T00:44:44;97552.09;;;1.78;75.93
45327;BME280;31062;49.678;24.560;2024-01-06T00:47:31;97564.63;;;1.94;76.08
45327;BME280;31062;49.678;24.560;2024-01-06T00:50:18;97565.34;;;1.95;75.92
45327;BME280;31062;49.678;24.560;2024-01-06T00:53:05;97554.41;;;1.95;75.82
45327;BME280;31062;49.678;24.560;2024-01-06T00:55:51;97545.47;;;1.94;76.29
45327;BME280;31062;49.678;24.560;2024-01-06T00:58:37;97540.00;;;1.94;76.07
45327;BME280;31062;49.678;24.560;2024-01-06T01:01:23;97532.88;;;1.91;76.35
45327;BME280;31062;49.678;24.560;2024-01-06T01:04:08;97526.47;;;1.89;76.45
45327;BME280;31062;49.678;24.560;2024-01-06T01:06:54;97509.13;;;1.86;76.25
45327;BME280;31062;49.678;24.560;2024-01-06T01:09:40;97510.59;;;1.87;76.14
45327;BME280;31062;49.678;24.560;2024-01-06T01:12:26;97500.91;;;1.79;76.32
45327;BME280;31062;49.678;24.560;2024-01-06T01:15:12;97519.00;;;1.89;76.61
45327;BME280;31062;49.678;24.560;2024-01-06T01:17:58;97524.47;;;1.89;76.71
45327;BME280;31062;49.678;24.560;2024-01-06T01:20:44;97524.66;;;1.91;76.39
45327;BME280;31062;49.678;24.560;2024-01-06T01:23:31;97519.00;;;1.89;76.62
45327;BME280;31062;49.678;24.560;2024-01-06T01:26:17;97519.78;;;1.97;76.60
45327;BME280;31062;49.678;24.560;2024-01-06T01:29:05;97534.06;;;2.03;76.25
45327;BME280;31062;49.678;24.560;2024-01-06T01:31:50;97530.78;;;2.05;76.47
45327;BME280;31062;49.678;24.560;2024-01-06T01:34:37;97505.97;;;2.03;76.81
45327;BME280;31062;49.678;24.560;2024-01-06T01:37:22;97527.53;;;2.07;77.07
45327;BME280;31062;49.678;24.560;2024-01-06T01:40:08;97523.72;;;2.10;76.39
45327;BME280;31062;49.678;24.560;2024-01-06T01:42:54;97482.69;;;1.81;76.87
45327;BME280;31062;49.678;24.560;2024-01-06T01:45:40;97510.03;;;2.10;76.93
45327;BME280;31062;49.678;24.560;2024-01-06T01:48:26;97516.97;;;2.11;76.70
45327;BME280;31062;49.678;24.560;2024-01-06T01:51:13;97523.94;;;2.12;76.92
45327;BME280;31062;49.678;24.560;2024-01-06T01:54:04;97505.28;;;2.02;76.39
45327;BME280;31062;49.678;24.560;2024-01-06T01:56:51;97509.88;;;2.08;76.72
45327;BME280;31062;49.678;24.560;2024-01-06T01:59:41;97522.16;;;2.22;76.58
45327;BME280;31062;49.678;24.560;2024-01-06T02:02:28;97498.44;;;2.17;76.44
45327;BME280;31062;49.678;24.560;2024-01-06T02:05:14;97514.56;;;2.28;76.43
45327;BME280;31062;49.678;24.560;2024-01-06T02:08:00;97486.31;;;2.04;76.40
45327;BME280;31062;49.678;24.560;2024-01-06T02:10:46;97498.44;;;2.17;76.37
45327;BME280;31062;49.678;24.560;2024-01-06T02:13:36;97330.09;;;1.15;76.40
45327;BME280;31062;49.678;24.560;2024-01-06T02:16:26;97488.63;;;2.21;76.38
45327;BME280;31062;49.678;24.560;2024-01-06T02:19:12;97491.31;;;2.14;76.64
45327;BME280;31062;49.678;24.560;2024-01-06T02:21:59;97518.16;;;2.23;76.97
45327;BME280;31062;49.678;24.560;2024-01-06T02:24:45;97521.50;;;2.29;76.73
45327;BME280;31062;49.678;24.560;2024-01-06T02:27:32;97485.88;;;2.21;76.55
45327;BME280;31062;49.678;24.560;2024-01-06T02:30:18;97511.81;;;2.28;76.50
45327;BME280;31062;49.678;24.560;2024-01-06T02:33:04;97515.72;;;2.40;76.32
45327;BME280;31062;49.678;24.560;2024-01-06T02:35:51;97487.63;;;2.32;76.13
45327;BME280;31062;49.678;24.560;2024-01-06T02:38:39;97527.47;;;2.48;76.28
45327;BME280;31062;49.678;24.560;2024-01-06T02:41:25;97503.56;;;2.49;76.17
45327;BME280;31062;49.678;24.560;2024-01-06T02:44:11;97510.06;;;2.66;75.88
45327;BME280;31062;49.678;24.560;2024-01-06T02:47:00;97497.25;;;2.61;75.80
45327;BME280;31062;49.678;24.560;2024-01-06T02:49:47;97529.09;;;2.79;75.55
45327;BME280;31062;49.678;24.560;2024-01-06T02:52:36;97334.88;;;1.72;75.44
45327;BME280;31062;49.678;24.560;2024-01-06T02:55:22;97368.88;;;1.91;75.33
45327;BME280;31062;49.678;24.560;2024-01-06T02:58:08;97360.13;;;1.93;74.95
45327;BME280;31062;49.678;24.560;2024-01-06T03:00:58;97484.75;;;2.81;74.63
45327;BME280;31062;49.678;24.560;2024-01-06T03:03:46;97464.44;;;2.61;74.92
45327;BME280;31062;49.678;24.560;2024-01-06T03:06:32;97349.44;;;1.74;74.91
45327;BME280;31062;49.678;24.560;2024-01-06T03:09:18;97487.06;;;2.69;74.49
45327;BME280;31062;49.678;24.560;2024-01-06T03:12:08;97508.66;;;2.80;74.64
45327;BME280;31062;49.678;24.560;2024-01-06T03:14:55;97478.28;;;2.63;74.72
45327;BME280;31062;49.678;24.560;2024-01-06T03:17:44;97457.97;;;2.51;74.72
45327;BME280;31062;49.678;24.560;2024-01-06T03:20:30;97505.91;;;2.80;74.95
45327;BME280;31062;49.678;24.560;2024-01-06T03:23:18;97482.69;;;2.66;75.03
45327;BME280;31062;49.678;24.560;2024-01-06T03:26:08;97493.63;;;2.66;74.92
45327;BME280;31062;49.678;24.560;2024-01-06T03:28:59;97492.22;;;2.80;75.10
45327;BME280;31062;49.678;24.560;2024-01-06T03:31:45;97491.47;;;2.72;74.79
45327;BME280;31062;49.678;24.560;2024-01-06T03:34:35;97478.16;;;2.76;74.82
45327;BME280;31062;49.678;24.560;2024-01-06T03:37:26;97497.78;;;2.96;74.73
45327;BME280;31062;49.678;24.560;2024-01-06T03:40:12;97508.34;;;2.92;74.71
45327;BME280;31062;49.678;24.560;2024-01-06T03:43:01;97497.97;;;2.98;74.97
45327;BME280;31062;49.678;24.560;2024-01-06T03:45:52;97491.94;;;2.92;74.73
45327;BME280;31062;49.678;24.560;2024-01-06T03:48:38;97505.56;;;2.84;74.78
45327;BME280;31062;49.678;24.560;2024-01-06T03:51:29;97497.78;;;2.96;74.88
45327;BME280;31062;49.678;24.560;2024-01-06T03:54:15;97348.88;;;1.96;74.83
45327;BME280;31062;49.678;24.560;2024-01-06T03:57:04;97470.72;;;2.84;74.59
45327;BME280;31062;49.678;24.560;2024-01-06T03:59:50;97468.16;;;2.79;74.83
45327;BME280;31062;49.678;24.560;2024-01-06T04:02:38;97464.84;;;2.80;74.61
45327;BME280;31062;49.678;24.560;2024-01-06T04:05:24;97437.22;;;2.63;74.85
45327;BME280;31062;49.678;24.560;2024-01-06T04:08:13;97465.72;;;2.68;74.78
45327;BME280;31062;49.678;24.560;2024-01-06T04:10:59;97466.06;;;2.64;75.25
45327;BME280;31062;49.678;24.560;2024-01-06T04:13:46;97433.34;;;2.51;75.19
45327;BME280;31062;49.678;24.560;2024-01-06T04:16:33;97429.72;;;2.49;75.67
45327;BME280;31062;49.678;24.560;2024-01-06T04:19:19;97318.22;;;1.62;75.46
45327;BME280;31062;49.678;24.560;2024-01-06T04:22:06;97427.03;;;2.28;76.21
45327;BME280;31062;49.678;24.560;2024-01-06T04:24:55;97447.34;;;2.40;76.27
45327;BME280;31062;49.678;24.560;2024-01-06T04:27:44;97469.47;;;2.50;76.56
45327;BME280;31062;49.678;24.560;2024-01-06T04:30:33;97481.25;;;2.37;76.83
45327;BME280;31062;49.678;24.560;2024-01-06T04:33:22;97466.91;;;2.44;76.96
45327;BME280;31062;49.678;24.560;2024-01-06T04:36:10;97456.66;;;2.44;77.03
45327;BME280;31062;49.678;24.560;2024-01-06T04:38:56;97454.84;;;2.47;76.62
45327;BME280;31062;49.678;24.560;2024-01-06T04:41:43;97461.13;;;2.55;76.74
45327;BME280;31062;49.678;24.560;2024-01-06T04:44:29;97411.75;;;2.32;77.21
45327;BME280;31062;49.678;24.560;2024-01-06T04:47:14;97403.84;;;2.21;76.98
45327;BME280;31062;49.678;24.560;2024-01-06T04:50:07;97445.19;;;2.46;77.11
45327;BME280;31062;49.678;24.560;2024-01-06T04:52:53;97424.75;;;2.47;76.71
45327;BME280;31062;49.678;24.560;2024-01-06T04:55:40;97435.22;;;2.56;76.95
45327;BME280;31062;49.678;24.560;2024-01-06T04:58:31;97424.97;;;2.49;77.12
45327;BME280;31062;49.678;24.560;2024-01-06T05:01:21;97459.13;;;2.56;77.01
45327;BME280;31062;49.678;24.560;2024-01-06T05:04:09;97441.56;;;2.51;77.17
45327;BME280;31062;49.678;24.560;2024-01-06T05:06:56;97447.28;;;2.68;77.05
45327;BME280;31062;49.678;24.560;2024-01-06T05:09:44;97448.38;;;2.65;77.23
45327;BME280;31062;49.678;24.560;2024-01-06T05:12:35;97457.53;;;2.68;77.09
45327;BME280;31062;49.678;24.560;2024-01-06T05:15:22;97439.22;;;2.55;76.84
45327;BME280;31062;49.678;24.560;2024-01-06T05:18:08;97435.06;;;2.62;77.24
45327;BME280;31062;49.678;24.560;2024-01-06T05:20:59;97449.16;;;2.73;76.89
45327;BME280;31062;49.678;24.560;2024-01-06T05:23:49;97435.97;;;2.64;77.03
45327;BME280;31062;49.678;24.560;2024-01-06T05:26:35;97456.47;;;2.78;77.01
45327;BME280;31062;49.678;24.560;2024-01-06T05:29:27;97430.88;;;2.68;76.65
45327;BME280;31062;49.678;24.560;2024-01-06T05:32:16;97456.84;;;2.82;77.06
45327;BME280;31062;49.678;24.560;2024-01-06T05:35:02;97451.72;;;2.86;76.65
45327;BME280;31062;49.678;24.560;2024-01-06T05:37:48;97296.16;;;1.88;76.50
45327;BME280;31062;49.678;24.560;2024-01-06T05:40:37;97428.94;;;2.84;76.57
45327;BME280;31062;49.678;24.560;2024-01-06T05:43:31;97444.84;;;3.01;76.06
45327;BME280;31062;49.678;24.560;2024-01-06T05:46:24;97430.59;;;2.95;75.68
45327;BME280;31062;49.678;24.560;2024-01-06T05:49:19;97450.69;;;3.05;75.55
45327;BME280;31062;49.678;24.560;2024-01-06T05:52:07;97448.16;;;3.07;75.65
45327;BME280;31062;49.678;24.560;2024-01-06T05:54:55;97430.03;;;2.88;75.51
45327;BME280;31062;49.678;24.560;2024-01-06T05:57:41;97448.53;;;3.03;75.58
45327;BME280;31062;49.678;24.560;2024-01-06T06:00:30;97460.03;;;3.09;75.55
45327;BME280;31062;49.678;24.560;2024-01-06T06:03:19;97456.56;;;3.09;75.44
45327;BME280;31062;49.678;24.560;2024-01-06T06:06:06;97467.84;;;2.98;75.37
45327;BME280;31062;49.678;24.560;2024-01-06T06:08:58;97448.88;;;3.07;75.48
45327;BME280;31062;49.678;24.560;2024-01-06T06:11:43;97440.09;;;2.94;75.52
45327;BME280;31062;49.678;24.560;2024-01-06T06:14:29;97374.47;;;2.50;75.52
45327;BME280;31062;49.678;24.560;2024-01-06T06:17:18;97443.34;;;2.92;75.46
45327;BME280;31062;49.678;24.560;2024-01-06T06:20:04;97463.25;;;2.93;75.28
45327;BME280;31062;49.678;24.560;2024-01-06T06:22:52;97439.38;;;3.01;75.62
45327;BME280;31062;49.678;24.560;2024-01-06T06:25:41;97400.47;;;2.79;75.30
45327;BME280;31062;49.678;24.560;2024-01-06T06:28:27;97441.91;;;2.99;75.40
45327;BME280;31062;49.678;24.560;2024-01-06T06:31:18;97307.00;;;2.09;75.32
45327;BME280;31062;49.678;24.560;2024-01-06T06:34:05;97445.38;;;2.92;75.80
45327;BME280;31062;49.678;24.560;2024-01-06T06:36:56;97428.03;;;2.89;75.38
45327;BME280;31062;49.678;24.560;2024-01-06T06:39:46;97428.03;;;2.89;75.89
45327;BME280;31062;49.678;24.560;2024-01-06T06:42:33;97433.34;;;2.95;75.35
45327;BME280;31062;49.678;24.560;2024-01-06T06:45:21;97439.19;;;2.99;75.47
45327;BME280;31062;49.678;24.560;2024-01-06T06:48:08;97459.88;;;3.15;75.72
45327;BME280;31062;49.678;24.560;2024-01-06T06:50:55;97445.97;;;2.98;75.61
45327;BME280;31062;49.678;24.560;2024-01-06T06:53:42;97452.16;;;3.06;75.53
45327;BME280;31062;49.678;24.560;2024-01-06T06:56:28;97469.53;;;3.16;75.44
45327;BME280;31062;49.678;24.560;2024-01-06T06:59:14;97462.78;;;3.17;75.18
45327;BME280;31062;49.678;24.560;2024-01-06T07:02:03;97311.03;;;2.16;75.20
45327;BME280;31062;49.678;24.560;2024-01-06T07:04:50;97395.16;;;2.74;75.50
45327;BME280;31062;49.678;24.560;2024-01-06T07:07:44;97433.56;;;3.12;75.43
45327;BME280;31062;49.678;24.560;2024-01-06T07:10:32;97434.69;;;3.24;75.49
45327;BME280;31062;49.678;24.560;2024-01-06T07:13:18;97461.38;;;3.39;75.27
45327;BME280;31062;49.678;24.560;2024-01-06T07:16:05;97448.41;;;3.39;75.49
45327;BME280;31062;49.678;24.560;2024-01-06T07:19:03;97446.03;;;3.43;74.80
45327;BME280;31062;49.678;24.560;2024-01-06T07:21:50;97453.72;;;3.52;75.08
45327;BME280;31062;49.678;24.560;2024-01-06T07:24:36;97352.13;;;2.90;74.92
45327;BME280;31062;49.678;24.560;2024-01-06T07:27:22;97450.25;;;3.59;74.96
45327;BME280;31062;49.678;24.560;2024-01-06T07:30:10;97432.91;;;3.49;74.79
45327;BME280;31062;49.678;24.560;2024-01-06T07:32:57;97431.97;;;3.54;74.61
45327;BME280;31062;49.678;24.560;2024-01-06T07:35:47;97446.78;;;3.66;74.71
45327;BME280;31062;49.678;24.560;2024-01-06T07:38:34;97427.41;;;3.49;74.56
45327;BME280;31062;49.678;24.560;2024-01-06T07:41:21;97440.94;;;3.62;74.62
45327;BME280;31062;49.678;24.560;2024-01-06T07:44:07;97437.66;;;3.56;74.57
45327;BME280;31062;49.678;24.560;2024-01-06T07:46:55;97438.56;;;3.59;74.88
45327;BME280;31062;49.678;24.560;2024-01-06T07:49:48;97437.66;;;3.56;74.77
45327;BME280;31062;49.678;24.560;2024-01-06T07:52:37;97424.13;;;3.43;74.87
45327;BME280;31062;49.678;24.560;2024-01-06T07:55:31;97450.09;;;3.57;74.67
45327;BME280;31062;49.678;24.560;2024-01-06T07:58:20;97433.25;;;3.53;74.81
45327;BME280;31062;49.678;24.560;2024-01-06T08:01:07;97419.38;;;3.44;74.87
45327;BME280;31062;49.678;24.560;2024-01-06T08:03:53;97441.47;;;3.53;75.40
45327;BME280;31062;49.678;24.560;2024-01-06T08:06:45;97423.38;;;3.43;75.49
45327;BME280;31062;49.678;24.560;2024-01-06T08:09:33;97353.94;;;2.95;75.35
45327;BME280;31062;49.678;24.560;2024-01-06T08:12:23;97449.72;;;3.61;75.38
45327;BME280;31062;49.678;24.560;2024-01-06T08:15:15;97436.56;;;3.44;75.55
45327;BME280;31062;49.678;24.560;2024-01-06T08:18:08;97458.47;;;3.59;75.69
45327;BME280;31062;49.678;24.560;2024-01-06T08:20:57;97439.84;;;3.50;75.86
45327;BME280;31062;49.678;24.560;2024-01-06T08:23:42;97447.88;;;3.56;75.88
45327;BME280;31062;49.678;24.560;2024-01-06T08:26:29;97446.78;;;3.51;75.69
45327;BME280;31062;49.678;24.560;2024-01-06T08:29:19;97449.34;;;3.49;76.09
45327;BME280;31062;49.678;24.560;2024-01-06T08:32:07;97437.28;;;3.45;76.37
45327;BME280;31062;49.678;24.560;2024-01-06T08:34:59;97446.94;;;3.46;75.86
45327;BME280;31062;49.678;24.560;2024-01-06T08:37:45;97458.31;;;3.57;76.13
45327;BME280;31062;49.678;24.560;2024-01-06T08:40:35;97423.38;;;3.35;76.04
45327;BME280;31062;49.678;24.560;2024-01-06T08:43:21;97441.84;;;3.42;76.22
45327;BME280;31062;49.678;24.560;2024-01-06T08:46:10;97454.63;;;3.55;76.30
45327;BME280;31062;49.678;24.560;2024-01-06T08:48:56;97457.03;;;3.51;76.37
45327;BME280;31062;49.678;24.560;2024-01-06T08:51:45;97442.03;;;3.44;76.17
45327;BME280;31062;49.678;24.560;2024-01-06T08:54:32;97439.81;;;3.35;76.11
45327;BME280;31062;49.678;24.560;2024-01-06T08:57:18;97456.25;;;3.35;76.14
45327;BME280;31062;49.678;24.560;2024-01-06T09:00:05;97448.25;;;3.45;76.45
45327;BME280;31062;49.678;24.560;2024-01-06T09:02:55;97446.25;;;3.45;76.56
45327;BME280;31062;49.678;24.560;2024-01-06T09:05:43;97455.19;;;3.53;76.52
45327;BME280;31062;49.678;24.560;2024-01-06T09:08:35;97348.44;;;2.79;76.25
45327;BME280;31062;49.678;24.560;2024-01-06T09:11:30;97472.38;;;3.61;76.31
45327;BME280;31062;49.678;24.560;2024-01-06T09:14:18;97455.38;;;3.55;76.50
45327;BME280;31062;49.678;24.560;2024-01-06T09:17:04;97447.34;;;3.65;76.66
45327;BME280;31062;49.678;24.560;2024-01-06T09:19:52;97423.75;;;3.54;76.48
45327;BME280;31062;49.678;24.560;2024-01-06T09:22:42;97330.22;;;2.90;76.14
45327;BME280;31062;49.678;24.560;2024-01-06T09:25:31;97323.28;;;2.88;75.89
45327;BME280;31062;49.678;24.560;2024-01-06T09:28:18;97460.69;;;3.84;75.66
45327;BME280;31062;49.678;24.560;2024-01-06T09:31:05;97437.84;;;3.81;76.02
45327;BME280;31062;49.678;24.560;2024-01-06T09:33:56;97457.75;;;4.04;76.49
45327;BME280;31062;49.678;24.560;2024-01-06T09:36:46;97454.97;;;4.12;76.11
45327;BME280;31062;49.678;24.560;2024-01-06T09:39:35;97446.94;;;4.14;75.85
45327;BME280;31062;49.678;24.560;2024-01-06T09:42:21;97433.81;;;4.05;76.11
45327;BME280;31062;49.678;24.560;2024-01-06T09:45:11;97450.56;;;4.24;76.77
45327;BME280;31062;49.678;24.560;2024-01-06T09:47:58;97451.31;;;4.32;76.86
45327;BME280;31062;49.678;24.560;2024-01-06T09:50:45;97466.44;;;4.41;76.11
45327;BME280;31062;49.678;24.560;2024-01-06T09:53:36;97471.59;;;4.44;75.76
45327;BME280;31062;49.678;24.560;2024-01-06T09:56:26;97472.66;;;4.49;75.90
45327;BME280;31062;49.678;24.560;2024-01-06T09:59:16;97444.88;;;4.37;75.62
45327;BME280;31062;49.678;24.560;2024-01-06T10:02:05;97443.78;;;4.40;75.37
45327;BME280;31062;49.678;24.560;2024-01-06T10:04:55;97435.72;;;4.42;75.09
45327;BME280;31062;49.678;24.560;2024-01-06T10:07:45;97463.88;;;4.58;75.24
45327;BME280;31062;49.678;24.560;2024-01-06T10:10:34;97447.22;;;4.48;75.21
45327;BME280;31062;49.678;24.560;2024-01-06T10:13:25;97469.56;;;4.45;75.73
45327;BME280;31062;49.678;24.560;2024-01-06T10:16:10;97454.72;;;4.48;75.63
45327;BME280;31062;49.678;24.560;2024-01-06T10:18:56;97482.50;;;4.60;75.05
45327;BME280;31062;49.678;24.560;2024-01-06T10:21:44;97466.25;;;4.54;75.05
45327;BME280;31062;49.678;24.560;2024-01-06T10:24:30;97474.69;;;4.41;74.95
45327;BME280;31062;49.678;24.560;2024-01-06T10:27:17;97451.31;;;4.17;75.20
45327;BME280;31062;49.678;24.560;2024-01-06T10:30:10;97453.16;;;4.22;75.95
45327;BME280;31062;49.678;24.560;2024-01-06T10:32:57;97465.03;;;4.17;76.05
45327;BME280;31062;49.678;24.560;2024-01-06T10:35:44;97454.41;;;4.36;76.35
45327;BME280;31062;49.678;24.560;2024-01-06T10:38:34;97461.34;;;4.37;75.84
45327;BME280;31062;49.678;24.560;2024-01-06T10:41:25;97474.72;;;4.33;76.13
45327;BME280;31062;49.678;24.560;2024-01-06T10:44:15;97461.16;;;4.35;76.55
45327;BME280;31062;49.678;24.560;2024-01-06T10:47:02;97433.56;;;4.18;76.62
45327;BME280;31062;49.678;24.560;2024-01-06T10:49:49;97472.69;;;4.41;76.53
45327;BME280;31062;49.678;24.560;2024-01-06T10:52:46;97450.72;;;4.41;77.06
45327;BME280;31062;49.678;24.560;2024-01-06T10:55:34;97454.72;;;4.56;77.05
45327;BME280;31062;49.678;24.560;2024-01-06T10:58:21;97449.81;;;4.46;76.08
45327;BME280;31062;49.678;24.560;2024-01-06T11:01:11;97419.63;;;4.46;76.11
45327;BME280;31062;49.678;24.560;2024-01-06T11:04:02;97448.66;;;4.65;75.78
45327;BME280;31062;49.678;24.560;2024-01-06T11:06:57;97429.28;;;4.47;75.42
45327;BME280;31062;49.678;24.560;2024-01-06T11:10:05;97440.81;;;4.53;75.83
45327;BME280;31062;49.678;24.560;2024-01-06T11:13:22;97442.66;;;4.59;76.37
45327;BME280;31062;49.678;24.560;2024-01-06T11:16:09;97448.47;;;4.63;76.68
45327;BME280;31062;49.678;24.560;2024-01-06T11:18:59;97443.31;;;4.67;76.60
45327;BME280;31062;49.678;24.560;2024-01-06T11:21:48;97438.38;;;4.73;76.32
45327;BME280;31062;49.678;24.560;2024-01-06T11:24:52;97423.91;;;4.72;76.40
45327;BME280;31062;49.678;24.560;2024-01-06T11:27:43;97293.63;;;3.86;75.94
45327;BME280;31062;49.678;24.560;2024-01-06T11:30:33;97416.59;;;4.75;76.02
45327;BME280;31062;49.678;24.560;2024-01-06T11:33:22;97384.06;;;4.64;75.78
45327;BME280;31062;49.678;24.560;2024-01-06T11:36:09;97275.13;;;3.94;75.97
45327;BME280;31062;49.678;24.560;2024-01-06T11:38:59;97405.69;;;4.92;76.03
45327;BME280;31062;49.678;24.560;2024-01-06T11:41:50;97406.22;;;4.98;75.32
45327;BME280;31062;49.678;24.560;2024-01-06T11:44:43;97406.22;;;4.98;75.08
45327;BME280;31062;49.678;24.560;2024-01-06T11:47:32;97402.91;;;5.00;75.01
45327;BME280;31062;49.678;24.560;2024-01-06T11:50:19;97415.16;;;5.06;75.34
45327;BME280;31062;49.678;24.560;2024-01-06T11:53:07;97268.31;;;4.10;74.62
45327;BME280;31062;49.678;24.560;2024-01-06T11:55:59;97379.34;;;4.89;74.26
45327;BME280;31062;49.678;24.560;2024-01-06T11:58:48;97405.09;;;5.01;73.79
45327;BME280;31062;49.678;24.560;2024-01-06T12:01:40;97397.03;;;5.03;73.36
45327;BME280;31062;49.678;24.560;2024-01-06T12:04:26;97396.84;;;5.01;73.69
45327;BME280;31062;49.678;24.560;2024-01-06T12:07:15;97379.53;;;4.83;74.24
45327;BME280;31062;49.678;24.560;2024-01-06T12:10:02;97398.50;;;5.04;74.30
45327;BME280;31062;49.678;24.560;2024-01-06T12:13:02;97407.50;;;4.97;74.42
45327;BME280;31062;49.678;24.560;2024-01-06T12:15:55;97401.03;;;5.10;74.47
45327;BME280;31062;49.678;24.560;2024-01-06T12:18:43;97369.22;;;4.99;76.32
45327;BME280;31062;49.678;24.560;2024-01-06T12:21:30;97392.88;;;5.19;75.52
45327;BME280;31062;49.678;24.560;2024-01-06T12:24:29;97394.34;;;5.20;75.27
45327;BME280;31062;49.678;24.560;2024-01-06T12:27:17;97383.38;;;5.20;75.60
45327;BME280;31062;49.678;24.560;2024-01-06T12:30:04;97383.22;;;5.18;75.39
45327;BME280;31062;49.678;24.560;2024-01-06T12:32:51;97377.88;;;5.20;75.57
45327;BME280;31062;49.678;24.560;2024-01-06T12:35:39;97369.88;;;5.07;75.40
45327;BME280;31062;49.678;24.560;2024-01-06T12:38:26;97386.94;;;5.30;75.69
45327;BME280;31062;49.678;24.560;2024-01-06T12:41:18;97365.41;;;5.19;75.09
45327;BME280;31062;49.678;24.560;2024-01-06T12:44:06;97371.59;;;5.27;75.26
45327;BME280;31062;49.678;24.560;2024-01-06T12:46:57;97388.38;;;5.39;75.60
45327;BME280;31062;49.678;24.560;2024-01-06T12:49:46;97360.78;;;5.29;75.25
45327;BME280;31062;49.678;24.560;2024-01-06T12:52:34;97387.19;;;5.50;74.86
45327;BME280;31062;49.678;24.560;2024-01-06T12:55:24;97352.34;;;5.27;75.03
45327;BME280;31062;49.678;24.560;2024-01-06T12:58:13;97385.16;;;5.50;74.81
45327;BME280;31062;49.678;24.560;2024-01-06T13:01:02;97383.16;;;5.51;75.40
45327;BME280;31062;49.678;24.560;2024-01-06T13:03:48;97391.56;;;5.53;75.52
45327;BME280;31062;49.678;24.560;2024-01-06T13:06:35;97376.53;;;5.54;75.47
45327;BME280;31062;49.678;24.560;2024-01-06T13:09:22;97377.97;;;5.55;75.99
45327;BME280;31062;49.678;24.560;2024-01-06T13:12:09;97392.22;;;5.61;75.59
45327;BME280;31062;49.678;24.560;2024-01-06T13:14:55;97361.28;;;5.36;75.26
45327;BME280;31062;49.678;24.560;2024-01-06T13:17:41;97369.84;;;5.40;75.10
45327;BME280;31062;49.678;24.560;2024-01-06T13:20:28;97385.72;;;5.49;75.37
45327;BME280;31062;49.678;24.560;2024-01-06T13:23:15;97263.63;;;4.60;75.38
45327;BME280;31062;49.678;24.560;2024-01-06T13:26:01;97411.09;;;5.40;75.74
45327;BME280;31062;49.678;24.560;2024-01-06T13:28:47;97388.03;;;5.35;75.42
45327;BME280;31062;49.678;24.560;2024-01-06T13:31:33;97385.16;;;5.25;75.48
45327;BME280;31062;49.678;24.560;2024-01-06T13:34:19;97380.25;;;5.24;75.54
45327;BME280;31062;49.678;24.560;2024-01-06T13:37:08;97271.44;;;4.46;75.42
45327;BME280;31062;49.678;24.560;2024-01-06T13:39:54;97400.41;;;5.44;75.67
45327;BME280;31062;49.678;24.560;2024-01-06T13:42:44;97411.09;;;5.40;75.59
45327;BME280;31062;49.678;24.560;2024-01-06T13:45:33;97412.00;;;5.42;75.24
45327;BME280;31062;49.678;24.560;2024-01-06T13:48:19;97416.59;;;5.40;75.45
45327;BME280;31062;49.678;24.560;2024-01-06T13:51:08;97272.91;;;4.40;75.36
45327;BME280;31062;49.678;24.560;2024-01-06T13:53:57;97404.16;;;5.31;75.90
45327;BME280;31062;49.678;24.560;2024-01-06T13:56:46;97401.19;;;5.12;75.89
45327;BME280;31062;49.678;24.560;2024-01-06T13:59:32;97403.53;;;5.15;76.26
45327;BME280;31062;49.678;24.560;2024-01-06T14:02:27;97408.53;;;5.09;76.32
45327;BME280;31062;49.678;24.560;2024-01-06T14:05:18;97409.47;;;5.04;76.59
45327;BME280;31062;49.678;24.560;2024-01-06T14:08:06;97398.91;;;4.93;76.61
45327;BME280;31062;49.678;24.560;2024-01-06T14:10:55;97420.47;;;5.04;76.70
45327;BME280;31062;49.678;24.560;2024-01-06T14:13:41;97444.06;;;5.07;76.71
45327;BME280;31062;49.678;24.560;2024-01-06T14:16:27;97423.63;;;4.93;77.02
45327;BME280;31062;49.678;24.560;2024-01-06T14:19:17;97412.28;;;4.89;77.20
45327;BME280;31062;49.678;24.560;2024-01-06T14:22:03;97426.53;;;4.95;76.91
45327;BME280;31062;49.678;24.560;2024-01-06T14:24:53;97405.94;;;4.79;77.90
45327;BME280;31062;49.678;24.560;2024-01-06T14:27:42;97410.69;;;4.78;78.10
45327;BME280;31062;49.678;24.560;2024-01-06T14:30:31;97423.78;;;4.95;78.83
45327;BME280;31062;49.678;24.560;2024-01-06T14:33:28;97427.34;;;4.88;79.61
45327;BME280;31062;49.678;24.560;2024-01-06T14:36:14;97436.66;;;4.85;79.96
45327;BME280;31062;49.678;24.560;2024-01-06T14:39:04;97435.38;;;4.86;80.18
45327;BME280;31062;49.678;24.560;2024-01-06T14:41:52;97430.13;;;4.73;80.57
45327;BME280;31062;49.678;24.560;2024-01-06T14:44:38;97283.00;;;3.82;80.81
45327;BME280;31062;49.678;24.560;2024-01-06T14:47:24;97419.16;;;4.73;80.89
45327;BME280;31062;49.678;24.560;2024-01-06T14:50:10;97415.50;;;4.70;80.99
45327;BME280;31062;49.678;24.560;2024-01-06T14:52:56;97436.31;;;4.81;81.07